createdAt,value
2023-01-26T00:05:21.445Z,41.47
2023-01-26T00:09:07.923Z,45.00
2023-01-26T00:13:02.578Z,40.30
2023-01-26T00:20:07.948Z,34.00
2023-01-26T00:23:20.262Z,41.03
2023-01-26T00:27:05.182Z,40.65
2023-01-26T00:30:33.190Z,37.05
2023-01-26T00:34:00.057Z,35.75
2023-01-26T00:37:10.164Z,37.53
2023-01-26T00:40:42.921Z,34.67
2023-01-26T00:43:54.467Z,33.22
2023-01-26T00:47:08.195Z,37.13
2023-01-26T00:50:48.647Z,36.15
2023-01-26T00:54:12.406Z,35.23
2023-01-26T00:57:31.471Z,36.07
2023-01-26T01:00:46.377Z,31.85
2023-01-26T01:03:53.116Z,33.20
2023-01-26T01:07:04.628Z,34.75
2023-01-26T01:10:17.197Z,42.20
2023-01-26T01:13:50.987Z,34.90
2023-01-26T01:17:11.581Z,34.55
2023-01-26T01:20:37.133Z,34.38
2023-01-26T01:23:57.943Z,30.52
2023-01-26T01:27:19.379Z,28.47
2023-01-26T01:30:41.579Z,33.23
2023-01-26T01:34:10.515Z,29.67
2023-01-26T01:37:47.313Z,30.45
2023-01-26T01:41:02.339Z,30.85
2023-01-26T01:44:21.411Z,29.60
2023-01-26T01:51:37.862Z,26.02
2023-01-26T01:55:28.955Z,24.52
2023-01-26T01:59:31.131Z,25.77
2023-01-26T02:03:32.277Z,27.40
2023-01-26T02:07:04.359Z,26.10
2023-01-26T02:10:41.851Z,25.92
2023-01-26T02:14:12.005Z,28.75
2023-01-26T02:21:17.653Z,30.20
2023-01-26T02:24:50.234Z,27.27
2023-01-26T02:28:27.390Z,28.38
2023-01-26T02:32:14.867Z,31.52
2023-01-26T02:36:06.985Z,38.90
2023-01-26T02:40:35.680Z,33.40
2023-01-26T02:44:11.447Z,31.33
2023-01-26T02:48:05.503Z,31.50
2023-01-26T02:51:44.387Z,27.88
2023-01-26T02:55:34.756Z,27.67
2023-01-26T02:59:34.569Z,27.47
2023-01-26T03:04:09.304Z,28.07
2023-01-26T03:07:42.831Z,30.77
2023-01-26T03:11:12.593Z,28.50
2023-01-26T03:14:48.575Z,29.90
2023-01-26T03:18:30.617Z,30.97
2023-01-26T03:22:13.160Z,30.87
2023-01-26T03:25:50.256Z,36.22
2023-01-26T03:29:00.286Z,30.23
2023-01-26T03:32:15.396Z,27.65
2023-01-26T03:36:03.141Z,25.13
2023-01-26T03:43:31.331Z,26.75
2023-01-26T03:47:26.665Z,25.15
2023-01-26T03:51:07.743Z,29.00
2023-01-26T03:58:11.500Z,26.73
2023-01-26T04:06:16.150Z,28.55
2023-01-26T04:10:22.003Z,29.13
2023-01-26T04:26:33.992Z,27.23
2023-01-26T04:47:11.738Z,28.83
2023-01-26T04:51:07.835Z,28.15
2023-01-26T05:00:11.295Z,28.53
2023-01-26T05:08:07.592Z,26.30
2023-01-26T05:16:40.601Z,27.50
2023-01-26T05:20:30.191Z,26.73
2023-01-26T05:45:04.875Z,26.67
2023-01-26T05:49:06.173Z,28.20
2023-01-26T05:52:21.424Z,24.55
2023-01-26T05:55:28.432Z,25.77
2023-01-26T05:58:36.311Z,25.03
2023-01-26T06:01:49.584Z,27.23
2023-01-26T06:05:01.573Z,27.20
2023-01-26T06:08:15.647Z,24.02
2023-01-26T06:11:56.444Z,26.27
2023-01-26T06:15:15.780Z,25.90
2023-01-26T06:18:26.092Z,28.65
2023-01-26T06:21:45.740Z,29.52
2023-01-26T06:24:54.892Z,27.85
2023-01-26T06:28:04.639Z,33.07
2023-01-26T06:31:11.895Z,31.87
2023-01-26T06:34:18.796Z,27.95
2023-01-26T06:37:25.110Z,31.30
2023-01-26T06:40:31.388Z,32.13
2023-01-26T06:43:36.657Z,31.07
2023-01-26T06:46:44.458Z,28.63
2023-01-26T06:49:53.528Z,29.80
2023-01-26T06:53:20.305Z,28.48
2023-01-26T06:56:38.202Z,28.48
2023-01-26T07:00:00.389Z,29.20
2023-01-26T07:03:16.318Z,31.23
2023-01-26T07:06:21.580Z,30.05
2023-01-26T07:09:34.697Z,30.15
2023-01-26T07:12:47.222Z,30.35
2023-01-26T07:16:11.284Z,29.07
2023-01-26T07:19:18.649Z,28.67
2023-01-26T07:22:28.628Z,32.70
2023-01-26T07:25:38.748Z,31.75
2023-01-26T07:28:49.558Z,37.13
2023-01-26T07:31:57.292Z,33.57
2023-01-26T07:35:03.973Z,37.17
2023-01-26T07:38:14.015Z,30.83
2023-01-26T07:41:25.213Z,33.03
2023-01-26T07:44:32.188Z,29.88
2023-01-26T07:47:38.923Z,32.60
2023-01-26T07:50:44.099Z,32.43
2023-01-26T07:53:51.070Z,32.55
2023-01-26T07:57:00.869Z,31.05
2023-01-26T08:00:07.308Z,29.55
2023-01-26T08:03:26.166Z,29.40
2023-01-26T08:06:32.199Z,32.97
2023-01-26T08:09:40.840Z,36.53
2023-01-26T08:12:45.252Z,30.20
2023-01-26T08:15:59.092Z,32.78
2023-01-26T08:19:09.487Z,31.63
2023-01-26T08:22:17.077Z,40.60
2023-01-26T08:25:25.145Z,34.00
2023-01-26T08:28:30.465Z,40.75
2023-01-26T08:31:34.517Z,33.83
2023-01-26T08:34:39.340Z,34.70
2023-01-26T08:37:44.594Z,35.43
2023-01-26T08:40:52.626Z,33.50
2023-01-26T08:43:59.633Z,33.97
2023-01-26T08:47:04.658Z,33.08
2023-01-26T08:50:10.607Z,32.13
2023-01-26T08:53:16.253Z,32.93
2023-01-26T08:56:26.951Z,36.10
2023-01-26T08:59:36.392Z,31.58
2023-01-26T09:02:43.678Z,32.28
2023-01-26T09:05:49.306Z,38.43
2023-01-26T09:09:07.723Z,38.50
2023-01-26T09:12:23.357Z,38.22
2023-01-26T09:15:33.878Z,38.13
2023-01-26T09:18:49.579Z,39.35
2023-01-26T09:22:03.168Z,35.40
2023-01-26T09:25:15.564Z,34.40
2023-01-26T09:28:29.929Z,32.55
2023-01-26T09:31:43.699Z,35.53
2023-01-26T09:34:50.640Z,35.72
2023-01-26T09:38:02.957Z,37.93
2023-01-26T09:41:30.251Z,31.97
2023-01-26T09:45:10.572Z,36.45
2023-01-26T09:48:54.670Z,35.08
2023-01-26T09:52:14.559Z,38.22
2023-01-26T09:55:23.261Z,30.93
2023-01-26T09:58:41.480Z,31.53
2023-01-26T10:02:06.631Z,31.55
2023-01-26T10:05:34.961Z,31.35
2023-01-26T10:08:46.636Z,28.90
2023-01-26T10:12:31.283Z,27.10
2023-01-26T10:15:46.725Z,25.87
2023-01-26T10:19:01.547Z,24.15
2023-01-26T10:22:16.912Z,30.73
2023-01-26T10:25:37.676Z,26.10
2023-01-26T10:28:48.494Z,24.67
2023-01-26T10:32:00.300Z,27.70
2023-01-26T10:35:24.992Z,25.55
2023-01-26T10:38:38.078Z,30.15
2023-01-26T10:42:02.336Z,27.05
2023-01-26T10:45:31.722Z,30.00
2023-01-26T10:48:44.649Z,23.10
2023-01-26T10:52:30.961Z,26.90
2023-01-26T10:55:40.706Z,27.45
2023-01-26T10:58:49.642Z,27.85
2023-01-26T11:01:56.332Z,28.97
2023-01-26T11:05:09.566Z,22.23
2023-01-26T11:08:36.008Z,27.27
2023-01-26T11:11:41.021Z,25.08
2023-01-26T11:14:59.566Z,27.27
2023-01-26T11:18:20.109Z,21.27
2023-01-26T11:21:32.572Z,24.73
2023-01-26T11:24:56.458Z,22.63
2023-01-26T11:28:18.408Z,20.08
2023-01-26T11:31:39.590Z,30.27
2023-01-26T11:35:25.075Z,18.10
2023-01-26T11:39:24.114Z,25.67
2023-01-26T11:42:55.831Z,26.85
2023-01-26T11:46:21.949Z,19.27
2023-01-26T11:49:57.584Z,20.10
2023-01-26T11:53:21.554Z,21.47
2023-01-26T11:57:07.601Z,24.17
2023-01-26T12:00:30.535Z,21.95
2023-01-26T12:03:46.553Z,22.13
2023-01-26T12:07:05.028Z,21.90
2023-01-26T12:10:15.266Z,21.67
2023-01-26T12:13:46.630Z,21.77
2023-01-26T12:17:23.518Z,16.98
2023-01-26T12:20:49.687Z,23.13
2023-01-26T12:24:00.812Z,22.10
2023-01-26T12:27:06.631Z,26.80
2023-01-26T12:30:33.593Z,18.27
2023-01-26T12:33:46.200Z,23.27
2023-01-26T12:37:07.870Z,26.92
2023-01-26T12:40:26.045Z,25.85
2023-01-26T12:43:47.373Z,24.60
2023-01-26T12:47:01.225Z,22.27
2023-01-26T12:50:32.662Z,19.85
2023-01-26T12:54:00.940Z,22.40
2023-01-26T12:57:08.647Z,21.85
2023-01-26T13:00:24.613Z,23.83
2023-01-26T13:03:42.645Z,21.67
2023-01-26T13:07:01.880Z,19.10
2023-01-26T13:10:23.521Z,19.77
2023-01-26T13:13:30.973Z,21.17
2023-01-26T13:16:40.065Z,22.90
2023-01-26T13:19:45.747Z,15.53
2023-01-26T13:22:53.947Z,22.83
2023-01-26T13:26:35.200Z,27.40
2023-01-26T13:35:40.908Z,25.60
2023-01-26T13:39:00.393Z,27.40
2023-01-26T13:42:11.003Z,24.02
2023-01-26T13:45:37.933Z,24.08
2023-01-26T13:48:51.173Z,22.45
2023-01-26T13:51:57.357Z,29.80
2023-01-26T13:55:02.234Z,20.17
2023-01-26T13:58:18.214Z,16.17
2023-01-26T14:01:23.957Z,27.35
2023-01-26T14:04:28.684Z,17.00
2023-01-26T14:07:42.075Z,15.80
2023-01-26T14:10:45.700Z,22.73
2023-01-26T14:14:02.932Z,18.92
2023-01-26T14:17:24.739Z,16.75
2023-01-26T14:20:39.648Z,19.00
2023-01-26T14:23:45.917Z,16.27
2023-01-26T14:26:49.240Z,15.97
2023-01-26T14:29:51.793Z,18.40
2023-01-26T14:33:04.959Z,34.78
2023-01-26T14:36:14.075Z,31.90
2023-01-26T14:39:19.694Z,25.63
2023-01-26T14:42:22.384Z,18.23
2023-01-26T14:45:32.155Z,19.30
2023-01-26T14:48:48.859Z,19.40
2023-01-26T14:51:56.525Z,26.02
2023-01-26T14:55:06.565Z,25.93
2023-01-26T14:58:21.479Z,22.80
2023-01-26T15:01:26.566Z,22.05
2023-01-26T15:04:36.875Z,25.65
2023-01-26T15:08:03.075Z,34.00
2023-01-26T15:11:29.131Z,31.23
2023-01-26T15:14:35.308Z,24.40
2023-01-26T15:17:42.970Z,28.25
2023-01-26T15:20:48.550Z,25.77
2023-01-26T15:23:54.971Z,25.95
2023-01-26T15:27:07.091Z,27.27
2023-01-26T15:30:17.070Z,30.83
2023-01-26T15:33:42.631Z,30.30
2023-01-26T15:36:52.202Z,31.88
2023-01-26T15:39:54.816Z,28.80
2023-01-26T15:43:16.565Z,25.07
2023-01-26T15:46:19.220Z,43.70
2023-01-26T15:49:23.490Z,45.55
2023-01-26T15:52:30.432Z,50.45
2023-01-26T15:55:33.383Z,66.32
2023-01-26T15:58:36.872Z,50.30
2023-01-26T16:01:39.488Z,46.53
2023-01-26T16:04:42.316Z,45.15
2023-01-26T16:07:44.974Z,47.83
2023-01-26T16:10:47.797Z,48.85
2023-01-26T16:14:02.563Z,49.80
2023-01-26T16:17:18.340Z,53.33
2023-01-26T16:20:20.945Z,65.43
2023-01-26T16:23:26.094Z,55.30
2023-01-26T16:26:29.399Z,63.85
2023-01-26T16:29:32.542Z,63.87
2023-01-26T16:32:35.126Z,59.03
2023-01-26T16:35:38.099Z,56.75
2023-01-26T16:38:41.387Z,56.53
2023-01-26T16:41:44.172Z,52.55
2023-01-26T16:44:47.112Z,47.23
2023-01-26T16:47:52.519Z,56.47
2023-01-26T16:50:55.129Z,51.53
2023-01-26T16:53:58.379Z,61.85
2023-01-26T16:57:00.985Z,71.68
2023-01-26T17:00:04.540Z,70.10
2023-01-26T17:03:10.216Z,83.67
2023-01-26T17:06:12.907Z,102.72
2023-01-26T17:09:15.679Z,90.72
2023-01-26T17:12:18.244Z,63.60
2023-01-26T17:15:20.839Z,62.57
2023-01-26T17:18:23.612Z,62.17
2023-01-26T17:21:29.466Z,50.63
2023-01-26T17:24:32.048Z,49.50
2023-01-26T17:27:34.848Z,56.50
2023-01-26T17:30:37.652Z,44.60
2023-01-26T17:33:40.426Z,54.23
2023-01-26T17:36:45.581Z,50.75
2023-01-26T17:39:48.695Z,42.05
2023-01-26T17:42:51.326Z,44.83
2023-01-26T17:46:02.840Z,51.30
2023-01-26T17:49:06.415Z,55.63
2023-01-26T17:52:12.396Z,64.90
2023-01-26T17:55:15.261Z,68.10
2023-01-26T17:58:18.061Z,70.03
2023-01-26T18:01:21.762Z,59.47
2023-01-26T18:04:24.366Z,57.83
2023-01-26T18:07:27.101Z,74.05
2023-01-26T18:10:32.559Z,65.93
2023-01-26T18:13:35.408Z,58.65
2023-01-26T18:16:38.168Z,63.47
2023-01-26T18:19:40.787Z,71.53
2023-01-26T18:22:43.726Z,78.63
2023-01-26T18:25:46.514Z,62.58
2023-01-26T18:28:49.586Z,53.80
2023-01-26T18:31:52.501Z,58.57
2023-01-26T18:34:56.495Z,54.60
2023-01-26T18:37:59.075Z,61.90
2023-01-26T18:41:02.277Z,62.42
2023-01-26T18:44:04.924Z,62.45
2023-01-26T18:47:07.680Z,52.73
2023-01-26T18:50:11.815Z,55.00
2023-01-26T18:53:14.747Z,69.90
2023-01-26T18:56:17.824Z,74.05
2023-01-26T18:59:20.374Z,71.22
2023-01-26T19:02:23.062Z,75.43
2023-01-26T19:05:25.802Z,75.13
2023-01-26T19:08:28.773Z,74.90
2023-01-26T19:11:36.476Z,78.47
2023-01-26T19:14:39.059Z,72.20
2023-01-26T19:17:45.032Z,65.93
2023-01-26T19:20:59.010Z,85.60
2023-01-26T19:24:07.863Z,85.30
2023-01-26T19:27:10.762Z,90.30
2023-01-26T19:30:13.934Z,83.97
2023-01-26T19:33:25.724Z,63.80
2023-01-26T19:36:30.075Z,63.50
2023-01-26T19:39:32.749Z,77.40
2023-01-26T19:42:36.579Z,77.22
2023-01-26T19:45:40.152Z,92.65
2023-01-26T19:48:43.475Z,83.63
2023-01-26T19:51:46.178Z,79.60
2023-01-26T19:54:48.844Z,69.07
2023-01-26T19:57:51.627Z,72.03
2023-01-26T20:01:02.037Z,71.72
2023-01-26T20:04:08.995Z,144.50
2023-01-26T20:07:11.792Z,137.50
2023-01-26T20:10:14.636Z,89.90
2023-01-26T20:13:20.528Z,71.93
2023-01-26T20:16:23.650Z,65.00
2023-01-26T20:19:27.944Z,66.43
2023-01-26T20:22:33.711Z,66.13
2023-01-26T20:25:37.305Z,74.95
2023-01-26T20:28:40.426Z,70.75
2023-01-26T20:31:43.192Z,57.35
2023-01-26T20:34:45.788Z,67.20
2023-01-26T20:37:48.566Z,65.10
2023-01-26T20:40:51.243Z,66.93
2023-01-26T20:44:01.574Z,68.57
2023-01-26T20:47:04.731Z,61.05
2023-01-26T20:50:13.725Z,62.17
2023-01-26T20:53:16.641Z,63.37
2023-01-26T20:56:21.026Z,67.43
2023-01-26T20:59:23.845Z,65.82
2023-01-26T21:02:26.592Z,66.05
2023-01-26T21:05:29.385Z,63.60
2023-01-26T21:08:32.834Z,64.37
2023-01-26T21:11:35.722Z,59.28
2023-01-26T21:14:38.442Z,54.30
2023-01-26T21:17:41.405Z,51.42
2023-01-26T21:20:44.403Z,53.00
2023-01-26T21:23:47.204Z,52.43
2023-01-26T21:26:50.032Z,52.00
2023-01-26T21:29:52.630Z,45.13
2023-01-26T21:32:55.263Z,49.97
2023-01-26T21:36:02.867Z,49.87
2023-01-26T21:39:07.333Z,53.47
2023-01-26T21:42:10.106Z,53.70
2023-01-26T21:45:31.356Z,53.20
2023-01-26T21:48:38.122Z,51.83
2023-01-26T21:51:59.184Z,45.47
2023-01-26T21:55:02.400Z,48.00
2023-01-26T21:58:23.556Z,52.42
2023-01-26T22:01:26.296Z,52.53
2023-01-26T22:04:30.362Z,56.80
2023-01-26T22:07:33.019Z,55.27
2023-01-26T22:10:35.856Z,50.20
2023-01-26T22:13:38.403Z,64.88
2023-01-26T22:16:41.240Z,56.33
2023-01-26T22:19:43.865Z,55.75
2023-01-26T22:22:46.631Z,61.60
2023-01-26T22:25:49.292Z,50.50
2023-01-26T22:28:57.258Z,53.05
2023-01-26T22:32:00.025Z,56.03
2023-01-26T22:35:03.523Z,51.28
2023-01-26T22:38:06.075Z,46.10
2023-01-26T22:41:12.795Z,52.33
2023-01-26T22:44:15.343Z,48.58
2023-01-26T22:47:18.012Z,48.13
2023-01-26T22:50:20.660Z,50.83
2023-01-26T22:53:23.253Z,55.83
2023-01-26T22:56:26.776Z,52.33
2023-01-26T22:59:29.374Z,50.03
2023-01-26T23:02:31.927Z,44.38
2023-01-26T23:05:34.856Z,42.58
2023-01-26T23:08:37.573Z,46.73
2023-01-26T23:11:40.258Z,42.97
2023-01-26T23:14:42.848Z,45.17
2023-01-26T23:17:48.237Z,47.80
2023-01-26T23:20:50.891Z,40.22
2023-01-26T23:23:53.559Z,48.23
2023-01-26T23:26:56.170Z,40.73
2023-01-26T23:29:59.812Z,38.50
2023-01-26T23:33:03.880Z,34.38
2023-01-26T23:36:07.541Z,37.63
2023-01-26T23:39:10.022Z,40.97
2023-01-26T23:42:14.218Z,37.57
2023-01-26T23:45:18.237Z,37.55
2023-01-26T23:48:20.848Z,36.90
2023-01-26T23:51:23.430Z,47.15
2023-01-26T23:54:26.371Z,40.17
2023-01-26T23:57:28.911Z,37.27
